Timeline UpdatesTrip UpdatesNews PostsPvt PostsTravel TipsAdmin PostsConv PostsFollowed PostsChat RequestsBlog PostsPNR Posts

Disclaimer
Search
 
 
Wed Aug 27, 2014 22:26:49 ISTHomeTrainsΣChainsAtlasPNRForumGalleryNewsFAQTripsMembersLoginFeedback
No Recent News for this Train
Other Trains in the News **new
Latest...
Train leaving Amritsar from 27/8/14-29/8/14 will be diverted to run via Siwan-Thawe-Kaptanganj-Gorakhpur #1198258
Tue Aug 26, 2014 (10:21PM)
⇐ Return Journey: Train# 15707

15708/Amrapali Express

Aug 27 departure has been DIVERTED between GKP/Gorakhpur Junction and SV/Siwan Junction
Feb 22 2014 (1:17PM)
Change Departure Station:
Change Arrival Station:
Post a Train Travel TipPost a Train Travel Tip **new
Post a Comment/Question/Picture/VideoPost a Comment/Question/Picture/Video
Pantry/Catering
✕ NO Pantry Car
✓ Catering Avbl
RSA - Rake Sharing
This train has 5 rakes in all, and has on-board cleaning system available. ; Charging points available in AC-2 tier, one in each coupe.
Rake/Coach Composition
LOCO«SLR-GN-GN-GN-GN-Gn-S9-S8-S7-S6-S5-S4-S3-S2-S1-B1-A1-GN-GN-GN-GN-SLR=22 Coach Train. S9 becomes S1 in UP train.
Loco
ASR-LKO> CNB WAP4 LKO-KIR> SGUJ WDP4
News    PNR    Forum    Time-Table    Availability    Fare Chart    Map    Arr/Dep History    Trips    Gallery    ΣChains    X/O    Timeline    
Travel Time: 24h 55m    25 halts    Distance: 1269 km    Avg Speed: 50 km/hr
Type: Mail/Express
Zone: NFR/Northeast Frontier
Departs @ 12:00
Platform# 6
SMTWTFS
Ambala Cantt. Junction/UMB 
Arrives @ 12:55 +1 night
Platform# 3
SMTWTFS
Muzaffarpur Junction/MFP 

25 halts. 203 intermediate Stations between Ambala Cantt. Junction and Muzaffarpur Junction

Show ALL intermediate Stations  Show Old Time-Table

#CodeStation NameX/OArrivesAvgDepartsAvgHaltPFDay#KmSpeedElevZoneAddress
1ASRAmritsar Junction (5)  -07:15-31-249.682233mNRAmritsar 143002, Punjab
2JNLJandiala (2)X  07:29-07:31-2m21-230.484238mNRJandiala, Punjab
3BEASBeas Junction (2)  07:48-07:50-2m21-206.561238mNRBeas, Punjab
4KREKartarpur (2)X  08:11-08:13-2m11-185.152236mNRKartarpur, Punjab
5JUCJalandhar City Junction (5)X  08:30-08:35-5m21-170.426239mNRJalandhar 144001, Punjab
6JRCJalandhar Cantt. Junction (3)X  08:46-08:48-2m21-165.665239mNRNear Rama Mandi, Punjab
7PGWPhagwara Junction (3)X  09:03-09:05-2m11-149.359245mNRPhagwara, Punjab
8GRYGoraya (2)X  09:15-09:17-2m11-139.469240mNRGoraya, Punjab
9PHRPhillaur Junction (3)  09:28-09:30-2m11-126.752246mNRPhillaur, Punjab
10LDHLudhiana Junction (7)X  09:45-09:55-10m11-113.657246mNRLudhiana 141001, Punjab
11KNNKhanna (3)X  10:40-10:42-2m21-70.867269mNRNH 1, Punjab
12SIRSirhind Junction (3)  10:58-11:00-2m21-52.983271mNRSirhind, Punjab
13RPJRajpura Junction (3)11:18-11:20-2m21-28.148272mNRNH-1, Punjab
14UMB»Ambala Cantt. Junction (7)»  11:55-12:00-5m610.081278mNRAmbala 133001, Haryana
15KUNKarnal (3)X  12:56-12:58-2m1175.274253mNRKarnal, Haryana
16PNPPanipat Junction (5)X  13:26-13:28-2m11109.685235mNRPanipat, Haryana
17SNPSonipat (3)X  14:00-14:02-2m11154.769225mNRSonipat, Haryana
18SZMDelhi Sabzi Mandi (2)  14:37-14:39-2m--1195.17220mNRGulabi Bagh, Delhi NCT
19DLIOld Delhi Junction (16)XO  15:05-15:20-15m111198.158219mNRNear Chandni Chowk Metro Station, Delhi NCT
20KRJKhurja Junction (4)X16:45-16:47-2m--1280.8109199mNCRBulandshahr, Uttar Pradesh
21ALJNAligarh Junction (4)XO  17:11-17:16-5m21324.339192mNCRAligarh, Uttar Pradesh
22HRSHathras Junction (3)X  18:02-18:04-2m21354.561183mNCRMahamaya Nagar(05722-242803), Uttar Pradesh
23TDLTundla Junction (5)XO  18:51-18:56-5m--1402.541167mNCRDistt.Firozabad, Uttar Pradesh
24FZDFirozabad (4)X  19:20-19:22-2m21419.055164mNCRFirozabad, Uttar Pradesh
25ETWEtawah (5)O  20:44-20:46-2m31494.370154mNCRDistt. Etawah, Uttar Pradesh
26CNBKanpur Central (10)X  22:45-23:00-15m--1633.650128mNCRKANPUR-208 001, Uttar Pradesh
27ONUnnao Junction (5)X  23:21-23:23-2m--1651.053129mNRUnnao, Uttar Pradesh
28LKOLucknow Charbagh (9)X  00:25-00:50-25m12705.638123mNR226004, Uttar Pradesh
29BBKBarabanki Junction (4)  01:35-01:37-2m--2734.269122mNRPin-225001, Uttar Pradesh
30GDGonda Junction (3)X  02:55-03:00-5m22823.580110mNERGonda 271001, Uttar Pradesh
31MURMankapur Junction (5)X03:21-03:23-2m--2851.486104mNERDistrict Gonda, Uttar Pradesh
32BSTBasti (4)  04:05-04:10-5m--2911.98490mNERBasti 272001, Uttar Pradesh
33KLDKhalilabad (3)X  04:31-04:33-2m--2941.42886mNERKhalilabad- 272175, Uttar Pradesh
34GKPGorakhpur Junction (10)  05:45-06:00-15m72975.46484mNERGorakhpur 273001, Uttar Pradesh
35DEOSDeoria Sadar (3)X  06:46-06:48-2m221024.55179mNERDeoria- 274001, Uttar Pradesh
36SVSiwan Junction (4)  08:10-08:15-5m121094.04170mNERSiwan, Bihar
37CPRChhapra Junction (6)X  09:45-10:05-20m--21155.26458mNERDistt: Saran, Bihar
38SEESonpur Junction (4)X  10:56-11:03-7m--21209.22556mECRSaran, Bihar
39HJPHajipur Junction (3)X  11:16-11:18-2m--21214.73355mECR06224-272230, Bihar
40MFP•Muzaffarpur Junction (6)•  12:55-13:05-10m321268.67257mECRMuzaffarpur, Bihar
41DOLDholi (2)  13:26-13:28-2m--21293.767 ECRDistt. Muzaffarpur, Bihar
42KRBPKhudiram B Pusa (2)  13:40-13:42-2m--21307.13652mECRDistt. Samastipur, Bihar
43SPJSamastipur Junction (9)  14:05-14:13-8m--21320.74255mECRSamastipur, Bihar
44BJUBarauni Junction (9)  15:25-15:35-10m521371.24049mECRBegusarai, Bihar
45BGSBegu Sarai (3)  15:55-15:57-2m221384.744 ECRBegusarai, Bihar
46KGGKhagaria Junction (3)  16:51-16:53-2m221424.64843mECRKhagaria, Bihar
47MNEMansi Junction (4)X  17:04-17:06-2m--21433.44143mECRMansi, Bihar
48THBThana Bihpur Junction (3)X  18:08-18:10-2m--21475.44839mECRThana Bihpur, Bihar
49NNANaugachia (3)X  18:30-18:32-2m121491.34637mECRBhagalpur, Bihar
50KUEKursela  18:56-18:58-2m--21509.83431mECRNH 31, Bihar
51CRRKaragola RoadX  19:28-19:30-2m--21526.83336mECRLachhmipur, Bihar
52KIRKatihar Junction (7)  20:10--121549.1-35mNFRKatihar 854105, Bihar
Scroll to Top
Scroll to Bottom